Pagrindinis puslapis
METAR-TAF:

METAR-TAF

Oro uostai :

Le Luc, Prancūzija

platuma: 43-23N, ilguma: 006-23E, Aukštis: 80 m

Dabartinis oras

Ataskaita buvo paskelbta 39 minutes, ne 04:00 UTC
Vėjas 11 kt iš Vakarų/Šiaurės Vakarų, svyruoja nuo Vakarų/Pietvakarių ir Šiaurės Vakarų
Temperatūra 9°C
Drėgmė 57%
Slėgis 1022 hPa
Matomumas 10 km arba daugiau

METAR: LFMC 180400Z AUTO 29011KT 250V320 9999 ////// 09/01 Q1022

Laikas: 05:39 (04:39 UTC)


TAF: trūkstamas

Orai ataskaitas ir orų prognozės (METAR, TAF).

turimą stotys yra geltonos ir raudonos taškus žemėlapyje.

Perkelti pele per norėdami pamatyti stoties vardą.

Tada spustelėkite, norėdami matyti oro stebėjimo ir prognozės.

Norėdami pakeisti žemėlapį: spustelėkite ant žalios mygtukų su juodo kryžiaus žemyn,; žalią mygtuką su brūkšneliu, jei norite nutolinti; arba žalių rodyklių gretimoms žemėlapius.


METAR-TAF: